1266-й км

Карта отелей и гостиниц, располагающихся рядом с аэропортом 1266-й км :

1266-й км Республика Коми 62° 5' 43.98" N, 49° 23' 12.5988" E
1266-й км Республика Коми 62° 5' 43.98" N, 49° 23' 12.5988" E
Код аэродрома ИКАО
HF0U
Код аэродрома RU
ХФ0У
Координаты
N62.09555° E049.38683°
Превышение над уровнем моря
99
Основная полоса
11/29
Курс магнитный
106,9/286,9
Длина основной ВПП
20
Ширина основной ВПП
20
Покрытие основной ВПП
Твёрдое (бетон)
Освещение ВПП
Нет
Тип: 
Вертодром
Класс аэродрома: 
Принадлежность: 
ГА
Статус: 
Действующий
Сайт: 
E-mail аэродрома: 
Страна: 
Россия
Регион: 
Республика Коми
Город: 
Дополнительная информация: 
Оператор: нет данных.


Найти трансфер

С помощью этой формы Вы можете найти трансфер из аэропорта 1266-й км в город, аэропорт или вокзал:

Погода в аэропортах:

Авиационная погода в Нижнем Новгороде

Регион: 
Погода METAR: 
UWGG 291030Z 22007MPS 9999 TS BKN040CB 16/05 Q1010 R18L/090070 NOSIG
Время наблюдения
2022-05-29T10:30:00Z
Температура C
16.0
Точка росы
5.0
Направление ветра
220
Скорость ветра (узлы)
14
Метео видимость
6.21
Облачность
BKN
Нижняя граница облачности (футы)
4000
Явления погоды
TS
Условия полета
VFR
Аэропорт подробнее: 
BKN – значительная (рассеянная, разорванная) облачность;

Авиационная погода в Богашево

Регион: 
Погода METAR: 
UNTT 291030Z 22002MPS 9999 -RA OVC048 16/11 Q1010 R21/190055 NOSIG RMK QFE742
Время наблюдения
2022-05-29T10:30:00Z
Температура C
16.0
Точка росы
11.0
Направление ветра
220
Скорость ветра (узлы)
4
Метео видимость
6.21
Облачность
OVC
Нижняя граница облачности (футы)
4800
Явления погоды
-RA
Условия полета
VFR
Аэропорт подробнее: 
OVC – сплошная облачность;
-RA - слабый дождь;

Авиационная погода в Бухте Провидения

Погода METAR: 
UHMD 270400Z 18005MPS 6000 BCFG SCT006 02/00 Q1016 RMK QBB200 MT OBSC QFE761/1015
Время наблюдения
2022-05-27T04:00:00Z
Температура C
2.0
Точка росы
0.0
Направление ветра
180
Скорость ветра (узлы)
10
Метео видимость
3.73
Облачность
SCT
Нижняя граница облачности (футы)
600
Явления погоды
BCFG
Условия полета
MVFR
Аэропорт подробнее: 
SCT – разбросанная отдельная облачность;
FG – туман (небо не видно, температура воздуха выше нуля или ноль);

Авиационная погода в Москва - Домодедово

Погода METAR: 
UUDD 291030Z 25006G11MPS 170V270 9999 -SHRA BKN050CB 12/05 Q1012 R32L/290045 NOSIG
Время наблюдения
2022-05-29T10:30:00Z
Температура C
12.0
Точка росы
5.0
Направление ветра
250
Скорость ветра (узлы)
12
Метео видимость
6.21
Облачность
BKN
Нижняя граница облачности (футы)
5000
Явления погоды
-SHRA
Условия полета
VFR
Аэропорт подробнее: 
BKN – значительная (рассеянная, разорванная) облачность;
-SHRA - слабый ливневой дождь;